This is the latest recevied weather packets stored in our database for station/object KD8YBJ. If no packets are shown the sender has not sent any weather packets the latest 10 day(s).
| Time | Temp. | Humidity | Pressure | Rain* | Wind** | Luminosity | Snow |
|---|---|---|---|---|---|---|---|
| 1777418736 | 12.22° C | 69% | 1012.6 hPa | 0 mm | - | 91 W/m² | - |
| 1777413917 | 13.89° C | 63% | 1013 hPa | 0 mm | - | 372 W/m² | - |
| 1777406736 | 13.89° C | 64% | 1013.2 hPa | 0 mm | - | 733 W/m² | - |
| 1777403117 | 13.33° C | 68% | 1013.1 hPa | 0 mm | - | 837 W/m² | - |
| 1777401917 | 13.33° C | 66% | 1012.9 hPa | 0 mm | - | 728 W/m² | - |
| 1777401318 | 13.33° C | 66% | 1012.3 hPa | 0 mm | - | 886 W/m² | - |
| 1777392320 | 10° C | 84% | 1011.9 hPa | 0 mm | - | 179 W/m² | - |
| 1777391120 | 10° C | 85% | 1011.7 hPa | 0 mm | - | 115 W/m² | - |
| 1777386921 | 9.44° C | 92% | 1010.7 hPa | 0 mm | - | 63 W/m² | - |
| 1777383316 | 9.44° C | 91% | 1009.2 hPa | 0 mm | - | 72 W/m² | - |
| 1777377919 | 10° C | 88% | 1007.3 hPa | 0 mm | - | 26 W/m² | - |
| 1777376719 | 10° C | 88% | 1006.9 hPa | 0 mm | - | 12 W/m² | - |
| 1777376118 | 10.56° C | 88% | 1006.7 hPa | 0 mm | - | 9 W/m² | - |
| 1777371316 | 10° C | 91% | 1004.9 hPa | 0 mm | - | 0 W/m² | - |
| 1777368917 | 10.56° C | 94% | 1004.2 hPa | 0 mm | - | 0 W/m² | - |
| 1777368320 | 10.56° C | 95% | 1004.1 hPa | 0 mm | - | 0 W/m² | - |
| 1777361116 | 13.33° C | 97% | 1002.4 hPa | 0 mm | - | 0 W/m² | - |
| 1777359316 | 12.78° C | 97% | 1002.8 hPa | 0 mm | - | 0 W/m² | - |
| 1777357516 | 13.33° C | 97% | 1003.2 hPa | 1.27 mm | - | 0 W/m² | - |
| 1777353920 | 12.78° C | 95% | 1003.5 hPa | 0 mm | - | 0 W/m² | - |
| 1777353321 | 13.89° C | 94% | 1003.6 hPa | 0 mm | - | 0 W/m² | - |
| 1777351521 | 15.56° C | 92% | 1002.8 hPa | 0 mm | - | 0 W/m² | - |
| 1777350321 | 16.11° C | 92% | 1002.7 hPa | 0 mm | - | 0 W/m² | - |
| 1777334117 | 18.89° C | 76% | 1003.8 hPa | 0 mm | - | 5 W/m² | - |
| 1777331720 | 18.89° C | 77% | 1003.9 hPa | 0 mm | - | 69 W/m² | - |
* Rain latest hour (hover to see other rain measurements)
** Current wind speed in m/s (hover to see current wind gust speed)